Time;durP1;ratioP1;P1;durP2;ratioP2;P2;SDS_P1;SDS_P2;PMS_P1;PMS_P2;Temp;Humidity;BMP_temperature;BMP_pressure;BME280_temperature;BME280_humidity;BME280_pressure;Samples;Min_cycle;Max_cycle;Signal;HPM_P1;HPM_P2
2023/10/29 00:01:46;;;;;;;4.70;2.30;;;14.50;99.90;;;;;;4995173;28;20216;-71
2023/10/29 00:04:13;;;;;;;3.10;2.73;;;14.40;99.90;;;;;;5007408;28;20477;-71
2023/10/29 00:06:41;;;;;;;2.60;2.33;;;14.40;99.90;;;;;;4978433;28;20455;-71
2023/10/29 00:09:11;;;;;;;3.13;2.10;;;14.40;99.90;;;;;;5018607;28;20461;-70
2023/10/29 00:11:40;;;;;;;2.43;2.23;;;14.50;99.90;;;;;;5013202;28;20458;-71
2023/10/29 00:14:06;;;;;;;4.40;2.40;;;14.50;99.90;;;;;;4997458;28;20317;-70
2023/10/29 00:16:34;;;;;;;3.20;2.33;;;14.40;99.90;;;;;;5011792;28;20448;-71
2023/10/29 00:19:03;;;;;;;3.10;1.97;;;14.50;99.90;;;;;;5017726;28;20506;-71
2023/10/29 00:21:34;;;;;;;2.20;2.03;;;14.50;99.90;;;;;;5018827;28;20517;-71
2023/10/29 00:24:03;;;;;;;2.17;1.97;;;14.50;99.90;;;;;;4976669;28;20919;-70
2023/10/29 00:26:29;;;;;;;2.43;2.23;;;14.40;99.90;;;;;;4998105;28;20432;-70
2023/10/29 00:28:55;;;;;;;4.50;2.33;;;14.50;99.90;;;;;;4988506;28;20423;-71
2023/10/29 00:31:24;;;;;;;3.40;2.30;;;14.40;99.90;;;;;;4968051;28;21846;-72
2023/10/29 00:33:51;;;;;;;5.13;2.60;;;14.40;99.90;;;;;;4977602;28;20527;-70
2023/10/29 00:36:17;;;;;;;3.10;2.10;;;14.50;99.90;;;;;;5016718;28;20447;-71
2023/10/29 00:38:43;;;;;;;2.80;1.70;;;14.40;99.90;;;;;;4992249;28;20470;-70
2023/10/29 00:41:11;;;;;;;2.60;2.33;;;14.50;99.90;;;;;;4968378;28;20982;-70
2023/10/29 00:43:40;;;;;;;2.97;2.07;;;14.50;99.90;;;;;;5004623;28;20438;-71
2023/10/29 00:46:11;;;;;;;2.17;1.97;;;14.50;99.90;;;;;;4989077;28;21124;-71
2023/10/29 00:48:39;;;;;;;4.57;2.20;;;14.50;99.90;;;;;;5000062;28;20194;-71
2023/10/29 00:51:05;;;;;;;2.40;2.20;;;14.40;99.90;;;;;;4992495;28;20866;-71
2023/10/29 00:53:33;;;;;;;2.30;2.13;;;14.50;99.90;;;;;;4967714;28;20495;-71
2023/10/29 00:56:04;;;;;;;4.37;2.10;;;14.50;99.90;;;;;;5000909;28;20430;-71
2023/10/29 00:58:31;;;;;;;6.10;2.30;;;14.50;99.90;;;;;;4999670;28;20439;-71
2023/10/29 01:00:57;;;;;;;2.30;2.10;;;14.50;99.90;;;;;;5001021;28;20457;-71
2023/10/29 01:03:26;;;;;;;2.67;2.03;;;14.50;99.90;;;;;;4975709;28;20514;-71
2023/10/29 01:05:55;;;;;;;2.60;2.00;;;14.50;99.90;;;;;;4999228;28;20442;-71
2023/10/29 01:08:27;;;;;;;3.73;2.30;;;14.50;99.90;;;;;;4996802;28;21099;-71
2023/10/29 01:10:55;;;;;;;3.90;2.63;;;14.50;99.90;;;;;;4976696;28;20523;-71
2023/10/29 01:13:21;;;;;;;2.13;1.70;;;14.50;99.90;;;;;;4998312;28;20480;-71
2023/10/29 01:15:47;;;;;;;2.60;2.00;;;14.50;99.90;;;;;;5018498;28;20470;-71
2023/10/29 01:18:13;;;;;;;3.33;1.97;;;14.50;99.90;;;;;;5000475;28;20450;-71
2023/10/29 01:20:39;;;;;;;2.23;1.73;;;14.50;99.90;;;;;;4984792;28;21728;-71
2023/10/29 01:23:05;;;;;;;3.80;2.10;;;14.50;99.90;;;;;;5000131;28;20443;-70
2023/10/29 01:25:33;;;;;;;3.27;1.90;;;14.50;99.90;;;;;;5000447;28;20436;-70
2023/10/29 01:27:59;;;;;;;2.50;2.10;;;14.40;99.90;;;;;;4976276;28;20439;-71
2023/10/29 01:30:26;;;;;;;3.80;1.90;;;14.50;99.90;;;;;;4991949;28;20451;-71
2023/10/29 01:32:56;;;;;;;8.30;2.30;;;14.50;99.90;;;;;;4993151;28;20999;-71
2023/10/29 01:35:22;;;;;;;2.50;2.17;;;14.50;99.90;;;;;;5000109;28;20427;-71
2023/10/29 01:37:50;;;;;;;2.73;2.20;;;14.50;99.90;;;;;;4999746;28;20505;-72
2023/10/29 01:40:18;;;;;;;4.53;1.90;;;14.50;99.90;;;;;;5017289;28;20982;-71
2023/10/29 01:42:45;;;;;;;3.93;2.67;;;14.50;99.90;;;;;;4993435;28;20527;-71
2023/10/29 01:45:14;;;;;;;4.73;2.40;;;14.50;99.90;;;;;;4990276;28;21244;-71
2023/10/29 01:47:41;;;;;;;4.03;2.13;;;14.40;99.90;;;;;;4959416;28;20536;-71
2023/10/29 01:50:08;;;;;;;2.70;2.10;;;14.50;99.90;;;;;;5017554;28;21291;-71
2023/10/29 01:52:38;;;;;;;2.57;1.97;;;14.50;99.90;;;;;;4999564;28;20455;-70
2023/10/29 01:55:08;;;;;;;2.50;1.83;;;14.50;99.90;;;;;;5016973;28;20510;-70
2023/10/29 01:57:38;;;;;;;3.03;2.23;;;14.50;99.90;;;;;;4999780;28;20427;-70
2023/10/29 02:00:08;;;;;;;2.40;2.20;;;14.50;99.90;;;;;;5003046;28;20454;-71
2023/10/29 02:02:45;;;;;;;2.40;2.10;;;14.50;99.90;;;;;;4982841;28;20428;-70
2023/10/29 02:05:14;;;;;;;3.13;2.03;;;14.50;99.90;;;;;;5000532;28;20764;-71
2023/10/29 02:07:42;;;;;;;2.30;2.10;;;14.50;99.90;;;;;;5002469;28;20443;-71
2023/10/29 02:10:13;;;;;;;2.27;2.07;;;14.50;99.90;;;;;;5000647;28;20441;-70
2023/10/29 02:12:39;;;;;;;3.73;2.70;;;14.50;99.90;;;;;;4982896;28;20467;-71
2023/10/29 02:15:08;;;;;;;2.63;2.43;;;14.50;99.90;;;;;;4983934;28;20936;-70
2023/10/29 02:17:37;;;;;;;3.33;2.30;;;14.50;99.90;;;;;;5020566;28;21029;-71
2023/10/29 02:20:03;;;;;;;4.07;2.10;;;14.50;99.90;;;;;;5020725;28;20430;-71
2023/10/29 02:22:29;;;;;;;2.20;2.00;;;14.50;99.90;;;;;;5003105;28;20926;-70
2023/10/29 02:24:57;;;;;;;3.00;2.00;;;14.50;99.90;;;;;;4951967;28;20515;-71
2023/10/29 02:27:23;;;;;;;4.90;2.40;;;14.50;99.90;;;;;;5002091;28;20465;-71
2023/10/29 02:29:54;;;;;;;3.23;2.43;;;14.50;99.90;;;;;;4986984;28;20996;-70
2023/10/29 02:32:20;;;;;;;2.30;2.10;;;14.50;99.90;;;;;;4983481;28;21131;-70
2023/10/29 02:34:46;;;;;;;2.70;2.00;;;14.50;99.90;;;;;;4988837;28;20964;-71
2023/10/29 02:37:12;;;;;;;4.63;2.30;;;14.50;99.90;;;;;;4978683;28;20416;-70
2023/10/29 02:39:38;;;;;;;2.23;1.73;;;14.50;99.90;;;;;;5020141;28;20479;-71
2023/10/29 02:42:04;;;;;;;2.10;1.90;;;14.50;99.90;;;;;;4994456;28;20443;-70
2023/10/29 02:44:32;;;;;;;4.23;2.10;;;14.50;99.90;;;;;;5021184;28;20471;-71
2023/10/29 02:47:03;;;;;;;1.93;1.73;;;14.50;99.90;;;;;;4971193;28;21111;-71
2023/10/29 02:49:29;;;;;;;2.50;1.83;;;14.50;99.90;;;;;;5004217;28;20829;-71
2023/10/29 02:51:55;;;;;;;3.00;2.10;;;14.50;99.90;;;;;;4997749;28;20486;-70
2023/10/29 02:54:21;;;;;;;3.07;2.07;;;14.50;99.90;;;;;;4986286;28;20440;-71
2023/10/29 02:56:48;;;;;;;2.57;1.90;;;14.50;99.90;;;;;;4986208;28;20452;-71
2023/10/29 02:59:15;;;;;;;3.60;2.23;;;14.50;99.90;;;;;;4993960;28;20461;-71
2023/10/29 03:01:43;;;;;;;2.07;1.70;;;14.50;99.90;;;;;;4989757;28;20473;-70
2023/10/29 03:04:12;;;;;;;2.40;1.90;;;14.50;99.90;;;;;;4989584;28;20424;-71
2023/10/29 03:06:39;;;;;;;2.23;2.03;;;14.50;99.90;;;;;;4990221;28;20442;-71
2023/10/29 03:09:06;;;;;;;2.27;2.00;;;14.50;99.90;;;;;;4971016;28;20420;-70
2023/10/29 03:11:35;;;;;;;4.23;2.20;;;14.50;99.90;;;;;;4982899;28;20502;-70
2023/10/29 03:14:01;;;;;;;3.30;2.03;;;14.50;99.90;;;;;;4983438;28;21363;-69
2023/10/29 03:16:27;;;;;;;2.60;1.73;;;14.50;99.90;;;;;;4975832;28;21010;-70
2023/10/29 03:18:53;;;;;;;2.20;1.83;;;14.50;99.90;;;;;;5000576;28;20432;-70
2023/10/29 03:21:23;;;;;;;2.10;1.83;;;14.50;99.90;;;;;;4966128;28;20460;-70
2023/10/29 03:23:49;;;;;;;1.80;1.70;;;14.50;99.90;;;;;;4982232;28;20420;-70
2023/10/29 03:26:15;;;;;;;1.80;1.70;;;14.50;99.90;;;;;;4973704;28;20464;-70
2023/10/29 03:28:43;;;;;;;3.60;1.70;;;14.50;99.90;;;;;;4999838;28;20445;-70
2023/10/29 03:31:16;;;;;;;2.03;1.70;;;14.50;99.90;;;;;;4982253;28;21118;-70
2023/10/29 03:33:44;;;;;;;1.87;1.77;;;14.50;99.90;;;;;;4955399;28;20476;-70
2023/10/29 03:36:12;;;;;;;2.43;1.80;;;14.50;99.90;;;;;;4982481;28;20422;-70
2023/10/29 03:38:38;;;;;;;2.40;2.10;;;14.50;99.90;;;;;;4971133;28;20518;-70
2023/10/29 03:41:04;;;;;;;3.10;1.93;;;14.50;99.90;;;;;;4969480;28;20471;-70
2023/10/29 03:43:31;;;;;;;3.43;1.97;;;14.50;99.90;;;;;;5001404;28;20432;-69
2023/10/29 03:45:59;;;;;;;2.70;1.80;;;14.50;99.90;;;;;;4966863;28;20445;-70
2023/10/29 03:48:25;;;;;;;1.77;1.67;;;14.50;99.90;;;;;;4999862;28;20431;-70
2023/10/29 03:50:52;;;;;;;7.30;2.17;;;14.50;99.90;;;;;;4993746;28;20530;-69
2023/10/29 03:53:18;;;;;;;1.80;1.70;;;14.50;99.90;;;;;;4977021;28;20490;-70
2023/10/29 03:55:44;;;;;;;2.00;1.50;;;14.50;99.90;;;;;;4977731;28;20433;-70
2023/10/29 03:58:13;;;;;;;1.83;1.70;;;14.50;99.90;;;;;;5011110;28;20416;-69
2023/10/29 04:00:42;;;;;;;2.17;1.97;;;14.50;99.90;;;;;;4969391;28;20473;-69
2023/10/29 04:03:10;;;;;;;3.90;2.10;;;14.50;99.90;;;;;;4985458;28;20432;-69
2023/10/29 04:05:36;;;;;;;2.70;2.07;;;14.50;99.90;;;;;;5018594;28;20454;-69
2023/10/29 04:08:02;;;;;;;3.57;1.80;;;14.50;99.90;;;;;;5011264;28;20446;-69
2023/10/29 04:10:28;;;;;;;2.27;1.67;;;14.50;99.90;;;;;;4997517;28;20555;-69
2023/10/29 04:12:56;;;;;;;3.80;2.00;;;14.50;99.90;;;;;;4980764;28;20480;-69
2023/10/29 04:15:22;;;;;;;2.20;2.00;;;14.50;99.90;;;;;;4965850;28;20541;-69
2023/10/29 04:17:53;;;;;;;2.13;1.97;;;14.50;99.90;;;;;;5001775;28;20538;-69
2023/10/29 04:20:21;;;;;;;4.10;1.80;;;14.50;99.90;;;;;;5000056;28;20461;-69
2023/10/29 04:22:48;;;;;;;3.27;1.80;;;14.50;99.90;;;;;;5011106;28;20882;-69
2023/10/29 04:25:16;;;;;;;2.53;2.10;;;14.50;99.90;;;;;;5018934;28;20427;-69
2023/10/29 04:27:42;;;;;;;1.87;1.67;;;14.60;99.90;;;;;;5006740;28;20454;-69
2023/10/29 04:30:09;;;;;;;2.40;1.60;;;14.50;99.90;;;;;;5018838;28;20466;-69
2023/10/29 04:32:39;;;;;;;3.97;2.10;;;14.50;99.90;;;;;;4994749;28;20472;-69
2023/10/29 04:35:09;;;;;;;3.40;1.77;;;14.60;99.90;;;;;;5018087;28;20443;-69
2023/10/29 04:37:38;;;;;;;4.73;1.67;;;14.60;99.90;;;;;;5000402;28;20431;-69
2023/10/29 04:40:04;;;;;;;2.47;1.97;;;14.50;99.90;;;;;;4984630;28;20461;-69
2023/10/29 04:42:30;;;;;;;3.50;2.13;;;14.50;99.90;;;;;;5014963;28;21244;-69
2023/10/29 04:44:56;;;;;;;2.10;1.90;;;14.60;99.90;;;;;;4997885;28;20436;-68
2023/10/29 04:47:22;;;;;;;2.40;1.57;;;14.50;99.90;;;;;;4999430;28;20429;-69
2023/10/29 04:49:48;;;;;;;1.60;1.50;;;14.50;99.90;;;;;;4996511;28;20844;-68
2023/10/29 04:52:39;;;;;;;1.90;1.70;;;14.60;99.90;;;;;;5019508;28;20443;-69
2023/10/29 04:55:07;;;;;;;1.90;1.70;;;14.60;99.90;;;;;;4951399;28;20486;-72
2023/10/29 04:57:40;;;;;;;3.10;2.10;;;14.50;99.90;;;;;;4959306;28;21030;-68
2023/10/29 05:00:09;;;;;;;1.73;1.63;;;14.50;99.90;;;;;;4934279;28;20453;-71
2023/10/29 05:02:38;;;;;;;2.00;1.80;;;14.60;99.90;;;;;;4942440;28;20473;-71
2023/10/29 05:05:06;;;;;;;2.93;1.93;;;14.60;99.90;;;;;;4958113;28;20445;-71
2023/10/29 05:07:33;;;;;;;2.03;1.93;;;14.50;99.90;;;;;;4958193;28;20500;-71
2023/10/29 05:10:01;;;;;;;2.87;1.77;;;14.50;99.90;;;;;;4950505;28;20474;-71
2023/10/29 05:12:32;;;;;;;2.10;2.00;;;14.60;99.90;;;;;;4939791;28;20481;-71
2023/10/29 05:14:58;;;;;;;2.07;1.80;;;14.50;99.90;;;;;;4954347;28;21062;-71
2023/10/29 05:17:24;;;;;;;1.90;1.80;;;14.60;99.90;;;;;;4942327;28;20484;-71
2023/10/29 05:19:50;;;;;;;2.03;1.30;;;14.50;99.90;;;;;;4941866;28;20445;-71
2023/10/29 05:22:16;;;;;;;2.10;1.90;;;14.50;99.90;;;;;;4957526;28;20438;-71
2023/10/29 05:24:42;;;;;;;2.73;1.77;;;14.60;99.90;;;;;;4936136;28;20458;-71
2023/10/29 05:27:09;;;;;;;2.00;1.67;;;14.60;99.90;;;;;;4955207;28;20453;-71
2023/10/29 05:29:35;;;;;;;2.27;1.90;;;14.60;99.90;;;;;;4969993;28;20505;-71
2023/10/29 05:32:01;;;;;;;2.23;2.10;;;14.60;99.90;;;;;;4955863;28;20560;-71
2023/10/29 05:34:27;;;;;;;1.63;1.53;;;14.50;99.90;;;;;;4961021;28;20430;-71
2023/10/29 05:36:53;;;;;;;2.13;1.77;;;14.50;99.90;;;;;;4961326;28;20450;-71
2023/10/29 05:39:19;;;;;;;2.50;2.23;;;14.50;99.90;;;;;;4954650;28;20449;-71
2023/10/29 05:41:45;;;;;;;1.97;1.67;;;14.60;99.90;;;;;;4961490;28;20464;-71
2023/10/29 05:44:14;;;;;;;1.80;1.53;;;14.60;99.90;;;;;;4960189;28;20441;-71
2023/10/29 05:46:40;;;;;;;1.80;1.67;;;14.60;99.90;;;;;;4955110;28;20437;-71
2023/10/29 05:49:07;;;;;;;2.70;1.97;;;14.60;99.90;;;;;;4961405;28;20851;-71
2023/10/29 05:51:37;;;;;;;1.70;1.50;;;14.60;99.90;;;;;;4961325;28;20447;-71
2023/10/29 05:54:05;;;;;;;1.53;1.43;;;14.60;99.90;;;;;;4954506;28;20480;-70
2023/10/29 05:56:34;;;;;;;1.60;1.50;;;14.60;99.90;;;;;;4953627;28;20803;-71
2023/10/29 05:59:00;;;;;;;2.93;1.60;;;14.60;99.90;;;;;;4955120;28;20995;-71
2023/10/29 06:01:29;;;;;;;2.20;1.67;;;14.50;99.90;;;;;;4960782;28;20551;-71
2023/10/29 06:03:55;;;;;;;2.10;1.90;;;14.60;99.90;;;;;;4955573;28;20917;-71
2023/10/29 06:06:21;;;;;;;2.20;2.00;;;14.60;99.90;;;;;;4953298;28;20423;-71
2023/10/29 06:08:49;;;;;;;2.43;2.10;;;14.60;99.90;;;;;;4962578;28;20438;-71
2023/10/29 06:11:15;;;;;;;4.03;1.93;;;14.60;99.90;;;;;;4960393;28;20471;-71
2023/10/29 06:13:44;;;;;;;4.00;1.90;;;14.60;99.90;;;;;;4960697;28;21075;-71
2023/10/29 06:16:10;;;;;;;2.47;1.73;;;14.60;99.90;;;;;;4960336;28;20469;-71
2023/10/29 06:18:43;;;;;;;2.57;1.50;;;14.60;99.90;;;;;;4960508;28;20433;-71
2023/10/29 06:21:09;;;;;;;3.40;1.70;;;14.60;99.90;;;;;;4961171;28;21103;-71
2023/10/29 06:23:37;;;;;;;2.10;1.70;;;14.60;99.90;;;;;;4944729;28;20636;-71
2023/10/29 06:26:10;;;;;;;1.80;1.50;;;14.60;99.90;;;;;;4937194;28;20830;-71
2023/10/29 06:28:36;;;;;;;2.17;2.00;;;14.60;99.90;;;;;;4961377;28;21134;-71
2023/10/29 06:31:04;;;;;;;1.90;1.80;;;14.60;99.90;;;;;;4958989;28;20445;-71
2023/10/29 06:33:31;;;;;;;2.03;1.70;;;14.60;99.90;;;;;;4958896;28;20243;-71
2023/10/29 06:35:58;;;;;;;1.90;1.67;;;14.60;99.90;;;;;;4943635;28;20797;-71
2023/10/29 06:38:25;;;;;;;2.77;1.87;;;14.60;99.90;;;;;;4959531;28;20521;-71
2023/10/29 06:40:51;;;;;;;1.63;1.53;;;14.60;99.90;;;;;;4960226;28;20468;-71
2023/10/29 06:43:17;;;;;;;3.50;1.90;;;14.60;99.90;;;;;;4960113;28;21353;-71
2023/10/29 06:45:44;;;;;;;1.83;1.53;;;14.60;99.90;;;;;;4960680;28;20926;-71
2023/10/29 06:48:10;;;;;;;2.97;1.47;;;14.60;99.90;;;;;;4952743;28;20437;-71
2023/10/29 06:50:36;;;;;;;2.67;1.50;;;14.70;99.90;;;;;;4958876;28;20485;-71
2023/10/29 06:53:08;;;;;;;2.70;1.60;;;14.70;99.90;;;;;;4959291;28;20484;-71
2023/10/29 06:55:35;;;;;;;3.30;1.90;;;14.70;99.90;;;;;;4968052;28;20539;-71
2023/10/29 06:58:01;;;;;;;3.00;1.50;;;14.70;99.90;;;;;;4960604;28;20437;-71
2023/10/29 07:00:29;;;;;;;6.90;2.27;;;14.60;99.90;;;;;;4960441;28;20508;-71
2023/10/29 07:02:56;;;;;;;1.97;1.77;;;14.70;99.90;;;;;;4975437;28;20998;-71
2023/10/29 07:05:22;;;;;;;1.70;1.60;;;14.70;99.90;;;;;;4959050;28;20442;-71
2023/10/29 07:07:48;;;;;;;1.87;1.60;;;14.70;99.90;;;;;;4943126;28;20446;-69
2023/10/29 07:10:18;;;;;;;2.90;2.13;;;14.70;99.90;;;;;;4958800;28;20520;-69
2023/10/29 07:12:46;;;;;;;2.27;1.73;;;14.70;99.90;;;;;;4960582;28;20485;-69
2023/10/29 07:15:12;;;;;;;2.10;1.90;;;14.70;99.90;;;;;;4934982;28;20458;-69
2023/10/29 07:17:38;;;;;;;5.10;1.60;;;14.60;99.90;;;;;;4974912;28;20433;-69
2023/10/29 07:20:08;;;;;;;2.90;1.73;;;14.70;99.90;;;;;;4944155;28;20814;-69
2023/10/29 07:22:36;;;;;;;6.53;1.80;;;14.70;99.90;;;;;;4959224;28;21116;-69
2023/10/29 07:25:03;;;;;;;2.13;1.70;;;14.70;99.90;;;;;;4936237;28;20442;-69
2023/10/29 07:27:30;;;;;;;3.97;2.00;;;14.60;99.90;;;;;;4950984;28;21309;-69
2023/10/29 07:29:56;;;;;;;4.60;1.70;;;14.70;99.90;;;;;;4950693;28;20501;-69
2023/10/29 07:32:25;;;;;;;2.47;2.07;;;14.70;99.90;;;;;;4958479;28;20469;-69
2023/10/29 07:34:50;;;;;;;2.37;1.70;;;14.70;99.90;;;;;;4943759;28;20473;-69
2023/10/29 07:37:19;;;;;;;2.07;1.60;;;14.70;99.90;;;;;;4958603;28;20465;-69
2023/10/29 07:39:47;;;;;;;5.70;2.13;;;14.70;99.90;;;;;;4942055;28;20571;-70
2023/10/29 07:42:13;;;;;;;6.23;2.30;;;14.70;99.90;;;;;;4942516;28;20458;-70
2023/10/29 07:44:45;;;;;;;2.87;1.70;;;14.70;99.90;;;;;;4960323;28;20426;-69
2023/10/29 07:47:11;;;;;;;3.57;2.10;;;14.70;99.90;;;;;;4959898;28;21580;-69
2023/10/29 07:49:44;;;;;;;2.87;1.70;;;14.70;99.90;;;;;;4960185;28;20445;-69
2023/10/29 07:52:13;;;;;;;6.80;2.30;;;14.70;99.90;;;;;;4950054;28;20446;-69
2023/10/29 07:54:40;;;;;;;1.67;1.40;;;14.70;99.90;;;;;;4953114;28;20494;-69
2023/10/29 07:57:07;;;;;;;2.33;1.60;;;14.70;99.90;;;;;;4954818;28;20426;-69
2023/10/29 07:59:35;;;;;;;1.77;1.40;;;14.70;99.90;;;;;;4959130;28;20485;-69
2023/10/29 08:02:02;;;;;;;3.53;1.93;;;14.70;99.90;;;;;;4942023;28;21228;-69
2023/10/29 08:04:31;;;;;;;3.20;1.90;;;14.60;99.90;;;;;;4942296;28;20462;-69
2023/10/29 08:07:00;;;;;;;3.50;1.70;;;14.70;99.90;;;;;;4958304;28;20433;-69
2023/10/29 08:09:27;;;;;;;2.57;1.80;;;14.70;99.90;;;;;;4958683;28;20442;-69
2023/10/29 08:11:55;;;;;;;2.30;1.53;;;14.60;99.90;;;;;;4959498;28;20450;-69
2023/10/29 08:14:21;;;;;;;6.40;1.80;;;14.70;99.90;;;;;;4974309;28;20471;-69
2023/10/29 08:16:52;;;;;;;1.93;1.40;;;14.70;99.90;;;;;;4949981;28;20445;-69
2023/10/29 08:19:20;;;;;;;2.50;1.60;;;14.70;99.90;;;;;;4959537;28;20431;-69
2023/10/29 08:21:48;;;;;;;2.53;2.33;;;14.70;99.90;;;;;;4960146;28;20987;-69
2023/10/29 08:24:14;;;;;;;4.90;2.10;;;14.70;99.90;;;;;;4958199;28;20986;-69
2023/10/29 08:26:42;;;;;;;2.20;1.60;;;14.70;99.90;;;;;;4918720;29;20464;-70
2023/10/29 08:29:15;;;;;;;2.30;1.60;;;14.70;99.90;;;;;;4947956;28;20439;-69
2023/10/29 08:31:45;;;;;;;5.23;1.80;;;14.70;99.90;;;;;;4950425;28;21314;-69
2023/10/29 08:34:16;;;;;;;2.30;1.90;;;14.70;99.90;;;;;;4958128;28;20474;-69
2023/10/29 08:36:44;;;;;;;2.20;1.80;;;14.70;99.90;;;;;;4958135;28;20908;-69
2023/10/29 08:39:10;;;;;;;2.10;1.60;;;14.70;99.90;;;;;;4959586;28;20570;-69
2023/10/29 08:41:40;;;;;;;1.70;1.60;;;14.70;99.90;;;;;;4958779;28;20449;-69
2023/10/29 08:44:08;;;;;;;2.53;1.70;;;14.70;99.90;;;;;;4974121;28;20457;-69
2023/10/29 08:46:35;;;;;;;2.40;1.40;;;14.70;99.90;;;;;;4941223;28;20810;-71
2023/10/29 08:49:01;;;;;;;1.87;1.57;;;14.60;99.90;;;;;;4959021;28;20458;-71
2023/10/29 08:51:27;;;;;;;3.97;1.70;;;14.60;99.90;;;;;;4957377;28;20445;-70
2023/10/29 08:53:57;;;;;;;2.37;1.70;;;14.70;99.90;;;;;;4958460;28;20483;-71
2023/10/29 08:56:31;;;;;;;4.20;2.07;;;14.70;99.90;;;;;;4945746;28;20789;-69
2023/10/29 08:59:04;;;;;;;2.53;1.63;;;14.70;99.90;;;;;;4940336;28;20468;-70
2023/10/29 09:01:36;;;;;;;3.43;2.00;;;14.60;99.90;;;;;;4923879;28;20548;-70
2023/10/29 09:04:05;;;;;;;2.00;1.63;;;14.70;99.90;;;;;;4954067;28;21196;-70
2023/10/29 09:06:33;;;;;;;3.53;1.60;;;14.70;99.90;;;;;;4964569;28;20441;-71
2023/10/29 09:08:59;;;;;;;2.90;1.50;;;14.60;99.90;;;;;;4959457;28;21131;-70
2023/10/29 09:11:25;;;;;;;3.20;2.07;;;14.70;99.90;;;;;;4960623;28;20675;-70
2023/10/29 09:13:51;;;;;;;2.93;1.87;;;14.70;99.90;;;;;;4942693;28;21013;-70
2023/10/29 09:16:20;;;;;;;2.40;1.50;;;14.70;99.90;;;;;;4968001;28;20524;-70
2023/10/29 09:18:48;;;;;;;2.47;1.50;;;14.70;99.90;;;;;;4943757;28;20445;-70
2023/10/29 09:21:17;;;;;;;2.43;1.70;;;14.70;99.90;;;;;;4959238;28;20672;-71
2023/10/29 09:23:45;;;;;;;2.37;1.77;;;14.70;99.90;;;;;;4954176;28;20421;-70
2023/10/29 09:26:13;;;;;;;2.90;1.60;;;14.70;99.90;;;;;;4951562;28;20430;-70
2023/10/29 09:28:44;;;;;;;1.73;1.63;;;14.70;99.90;;;;;;4961359;28;20524;-71
2023/10/29 09:31:17;;;;;;;3.03;1.43;;;14.70;99.90;;;;;;4975935;28;20493;-71
2023/10/29 09:33:44;;;;;;;4.17;1.50;;;14.70;99.90;;;;;;4957108;28;20478;-70
2023/10/29 09:36:17;;;;;;;4.13;1.60;;;14.70;99.90;;;;;;4961822;28;20439;-71
2023/10/29 09:38:48;;;;;;;7.07;2.83;;;14.70;99.90;;;;;;4976528;28;21002;-71
2023/10/29 09:41:18;;;;;;;2.60;1.43;;;14.70;99.90;;;;;;4976367;28;20470;-70
2023/10/29 09:43:50;;;;;;;1.87;1.60;;;14.70;99.90;;;;;;4975960;28;20441;-71
2023/10/29 09:46:23;;;;;;;3.00;1.60;;;14.70;99.90;;;;;;4944296;28;20497;-71
2023/10/29 09:48:52;;;;;;;5.60;1.70;;;14.70;99.90;;;;;;4960234;28;20432;-71
2023/10/29 09:51:20;;;;;;;2.60;1.80;;;14.70;99.90;;;;;;4949311;28;20552;-71
2023/10/29 09:53:46;;;;;;;2.67;1.57;;;14.70;99.90;;;;;;4951871;28;20492;-71
2023/10/29 09:56:13;;;;;;;4.60;1.80;;;14.70;99.90;;;;;;4950274;28;20816;-70
2023/10/29 09:58:42;;;;;;;1.67;1.57;;;14.70;99.90;;;;;;4931473;29;20435;-71
2023/10/29 10:01:10;;;;;;;2.73;1.83;;;14.70;99.90;;;;;;4972514;28;20879;-71
2023/10/29 10:03:36;;;;;;;2.73;1.60;;;14.80;99.90;;;;;;4967035;28;20521;-71
2023/10/29 10:06:02;;;;;;;1.93;1.83;;;14.70;99.90;;;;;;4950554;28;20442;-70
2023/10/29 10:08:33;;;;;;;1.80;1.70;;;14.80;99.90;;;;;;4948058;28;20444;-71
2023/10/29 10:11:00;;;;;;;2.63;1.90;;;14.70;99.90;;;;;;4947364;28;20438;-70
2023/10/29 10:13:39;;;;;;;4.00;1.63;;;14.80;99.90;;;;;;4959930;28;20509;-71
2023/10/29 10:16:10;;;;;;;2.37;1.80;;;14.70;99.90;;;;;;4943639;28;20502;-71
2023/10/29 10:18:57;;;;;;;3.43;2.33;;;14.70;99.90;;;;;;4954759;28;20431;-71
2023/10/29 10:21:47;;;;;;;3.50;1.50;;;14.70;99.90;;;;;;4947088;28;20454;-70
2023/10/29 10:24:14;;;;;;;3.50;1.70;;;14.80;99.90;;;;;;4956913;28;20449;-72
2023/10/29 10:26:48;;;;;;;1.57;1.47;;;14.80;99.90;;;;;;4952742;28;20457;-71
2023/10/29 10:29:14;;;;;;;2.20;1.60;;;14.80;99.90;;;;;;4934363;28;20464;-72
2023/10/29 10:31:43;;;;;;;1.50;1.40;;;14.80;99.90;;;;;;4955412;28;20448;-71
2023/10/29 10:34:17;;;;;;;4.73;1.73;;;14.80;99.90;;;;;;4946039;28;20486;-72
2023/10/29 10:36:50;;;;;;;2.33;1.70;;;14.80;99.90;;;;;;4953494;28;20438;-71
2023/10/29 10:39:27;;;;;;;3.63;1.87;;;14.80;99.90;;;;;;4964986;28;20498;-70
2023/10/29 10:41:55;;;;;;;1.60;1.40;;;14.90;99.90;;;;;;4950572;28;20464;-71
2023/10/29 10:44:22;;;;;;;2.27;1.80;;;14.80;99.90;;;;;;4948986;28;21002;-71
2023/10/29 10:46:50;;;;;;;1.77;1.67;;;14.90;99.90;;;;;;4953617;28;20504;-71
2023/10/29 10:49:22;;;;;;;2.20;1.70;;;14.90;99.90;;;;;;4951639;28;20471;-71
2023/10/29 10:51:58;;;;;;;2.23;1.77;;;14.90;99.90;;;;;;4956804;28;20488;-71
2023/10/29 10:54:27;;;;;;;2.57;1.60;;;14.90;99.90;;;;;;4924183;28;21294;-71
2023/10/29 10:56:55;;;;;;;2.40;1.50;;;14.90;99.90;;;;;;4940959;29;21004;-71
2023/10/29 10:59:22;;;;;;;2.10;1.87;;;14.90;99.90;;;;;;4956966;28;21087;-71
2023/10/29 11:01:49;;;;;;;3.03;1.60;;;14.90;99.90;;;;;;4936062;28;21012;-71
2023/10/29 11:04:23;;;;;;;2.03;1.73;;;14.90;99.90;;;;;;4954252;28;21263;-70
2023/10/29 11:06:51;;;;;;;2.10;1.90;;;14.90;99.90;;;;;;4947197;28;20497;-70
2023/10/29 11:09:19;;;;;;;5.40;1.70;;;14.90;99.90;;;;;;4949466;28;20846;-72
2023/10/29 11:12:05;;;;;;;1.87;1.63;;;14.90;99.90;;;;;;4957498;28;20538;-71
2023/10/29 11:14:31;;;;;;;8.33;1.70;;;15.00;99.90;;;;;;4973409;28;20466;-71
2023/10/29 11:16:59;;;;;;;2.07;1.73;;;15.00;99.90;;;;;;4950293;28;20507;-71
2023/10/29 11:19:45;;;;;;;2.77;1.70;;;15.00;99.90;;;;;;4949268;28;20541;-71
2023/10/29 11:22:22;;;;;;;4.13;1.80;;;15.00;99.90;;;;;;4957291;28;20508;-72
2023/10/29 11:25:09;;;;;;;3.10;1.97;;;15.00;99.90;;;;;;4987918;23;20537;-70
2023/10/29 11:27:47;;;;;;;3.07;1.70;;;15.00;99.90;;;;;;4989478;28;20440;-71
2023/10/29 11:30:23;;;;;;;2.90;2.20;;;15.00;99.90;;;;;;4980341;28;20982;-71
2023/10/29 11:33:18;;;;;;;4.23;1.70;;;15.00;99.90;;;;;;4980233;28;20510;-71
2023/10/29 11:35:47;;;;;;;2.37;1.60;;;15.10;99.90;;;;;;4978895;28;20596;-71
2023/10/29 11:38:30;;;;;;;5.53;1.47;;;15.10;99.90;;;;;;4972373;28;21025;-71
2023/10/29 11:40:58;;;;;;;3.27;2.00;;;15.10;99.90;;;;;;4998325;28;20447;-71
2023/10/29 11:43:24;;;;;;;4.33;1.83;;;15.10;99.90;;;;;;4997921;28;20528;-71
2023/10/29 11:46:01;;;;;;;2.83;1.77;;;15.10;99.90;;;;;;4979951;28;20420;-72
2023/10/29 11:48:31;;;;;;;3.93;2.60;;;15.10;99.90;;;;;;4980033;28;21082;-71
2023/10/29 11:51:08;;;;;;;2.67;1.70;;;15.20;99.90;;;;;;4980857;28;21388;-70
2023/10/29 11:53:36;;;;;;;2.93;1.80;;;15.20;99.90;;;;;;4997969;28;20503;-71
2023/10/29 11:56:09;;;;;;;3.23;2.00;;;15.20;99.90;;;;;;4963118;28;20472;-71
2023/10/29 11:58:40;;;;;;;2.13;1.70;;;15.20;99.90;;;;;;4973222;28;20491;-71
2023/10/29 12:01:06;;;;;;;2.57;2.00;;;15.20;99.90;;;;;;4963200;28;20456;-71
2023/10/29 12:03:32;;;;;;;6.57;2.33;;;15.20;99.90;;;;;;4997215;28;20439;-71
2023/10/29 12:06:04;;;;;;;2.90;1.60;;;15.20;99.90;;;;;;4989206;28;20544;-71
2023/10/29 12:08:32;;;;;;;4.20;1.70;;;15.20;99.90;;;;;;4988947;28;21151;-70
2023/10/29 12:11:00;;;;;;;4.20;1.60;;;15.20;99.90;;;;;;4962918;28;20450;-70
2023/10/29 12:13:40;;;;;;;2.33;1.70;;;15.20;99.90;;;;;;4963229;28;20513;-71
2023/10/29 12:16:10;;;;;;;5.30;3.20;;;15.20;99.90;;;;;;4955980;28;20459;-71
2023/10/29 12:18:36;;;;;;;2.90;1.70;;;15.20;99.90;;;;;;4979759;28;21494;-71
2023/10/29 12:21:06;;;;;;;2.10;1.40;;;15.20;99.90;;;;;;4955573;28;21551;-70
2023/10/29 12:23:35;;;;;;;3.50;2.63;;;15.20;99.90;;;;;;4972080;28;20465;-71
2023/10/29 12:26:06;;;;;;;2.43;1.70;;;15.20;99.90;;;;;;4979583;28;20448;-72
2023/10/29 12:28:39;;;;;;;1.50;1.40;;;15.20;99.90;;;;;;4976379;28;20426;-72
2023/10/29 12:31:12;;;;;;;1.60;1.50;;;15.20;99.90;;;;;;4968280;28;20491;-71
2023/10/29 12:33:39;;;;;;;2.87;2.10;;;15.20;99.90;;;;;;4962989;28;20511;-72
2023/10/29 12:36:14;;;;;;;3.43;1.67;;;15.30;99.90;;;;;;4964141;28;20432;-69
2023/10/29 12:38:43;;;;;;;1.87;1.70;;;15.20;99.90;;;;;;4997691;28;20429;-71
2023/10/29 12:41:15;;;;;;;2.40;1.47;;;15.20;99.90;;;;;;4964656;28;20461;-72
2023/10/29 12:44:00;;;;;;;3.07;1.27;;;15.20;99.90;;;;;;4980008;28;20439;-71
2023/10/29 12:46:27;;;;;;;3.97;1.70;;;15.20;99.90;;;;;;4964567;28;20465;-71
2023/10/29 12:48:59;;;;;;;3.07;1.20;;;15.20;99.90;;;;;;4964036;28;20982;-70
2023/10/29 12:51:41;;;;;;;1.87;1.40;;;15.20;99.90;;;;;;4998086;28;20540;-71
2023/10/29 12:54:26;;;;;;;3.57;1.60;;;15.20;99.90;;;;;;4980002;28;20549;-72
2023/10/29 12:57:02;;;;;;;1.97;1.60;;;15.20;99.90;;;;;;4992923;28;20422;-69